Terminal Aerodrome Forecast
Issued by NWS Lake Charles, LA

Home | Current Version | Previous Version | Text Only | Print | Product List | Glossary On
Versions: 1 2 3 4 5 6 7 8 9 10 11 12 13 14 15 16 17 18 19 20 21 22 23 24 25 26
000
FTUS44 KLCH 031100
TAFLCH
TAF
KLCH 031120Z 0312/0412 06005KT 1/4SM FG OVC002
     FM031500 15008KT 2SM BR OVC003
     FM031800 17010G15KT P6SM OVC012
     FM040100 16006KT 2SM BR OVC003=

USA.gov is the U.S. government's official web portal to all federal, state and local government web resources and services.